createdAt,value
2019-02-11T00:02:38.722Z,34.53
2019-02-11T00:07:43.774Z,37.40
2019-02-11T00:12:48.809Z,31.40
2019-02-11T00:17:53.897Z,37.03
2019-02-11T00:22:59.217Z,31.77
2019-02-11T00:28:04.252Z,23.60
2019-02-11T00:33:09.332Z,20.77
2019-02-11T00:38:14.370Z,44.33
2019-02-11T00:43:19.561Z,39.93
2019-02-11T00:48:24.858Z,64.93
2019-02-11T00:53:29.909Z,39.17
2019-02-11T00:58:34.960Z,57.13
2019-02-11T01:03:39.987Z,30.07
2019-02-11T01:08:45.036Z,33.17
2019-02-11T01:13:51.561Z,33.23
2019-02-11T01:18:56.722Z,42.17
2019-02-11T01:24:01.769Z,31.03
2019-02-11T01:29:06.789Z,41.20
2019-02-11T01:34:11.813Z,55.77
2019-02-11T01:39:16.849Z,43.53
2019-02-11T01:44:21.863Z,41.37
2019-02-11T01:49:26.879Z,25.33
2019-02-11T01:54:31.956Z,23.77
2019-02-11T01:59:37.000Z,29.50
2019-02-11T02:04:42.049Z,20.50
2019-02-11T02:09:47.076Z,25.23
2019-02-11T02:14:52.106Z,27.33
2019-02-11T02:19:57.141Z,30.73
2019-02-11T02:25:02.162Z,82.77
2019-02-11T02:30:08.386Z,41.63
2019-02-11T02:35:13.411Z,37.90
2019-02-11T02:40:18.480Z,35.73
2019-02-11T02:45:23.510Z,35.47
2019-02-11T02:50:28.548Z,40.27
2019-02-11T02:55:33.641Z,47.47
2019-02-11T03:00:38.983Z,33.83
2019-02-11T03:05:44.020Z,41.67
2019-02-11T03:10:49.080Z,28.33
2019-02-11T03:15:54.098Z,41.13
2019-02-11T03:20:59.153Z,28.77
2019-02-11T03:26:04.203Z,24.77
2019-02-11T03:31:09.263Z,29.67
2019-02-11T03:36:14.329Z,33.10
2019-02-11T03:41:19.694Z,35.03
2019-02-11T03:46:24.745Z,40.57
2019-02-11T03:51:29.766Z,31.03
2019-02-11T03:56:34.857Z,47.47
2019-02-11T04:01:39.874Z,53.20
2019-02-11T04:06:44.914Z,116.37
2019-02-11T04:11:51.425Z,56.10
2019-02-11T04:16:56.454Z,111.50
2019-02-11T04:22:08.900Z,44.83
2019-02-11T04:27:13.926Z,44.23
2019-02-11T04:32:19.126Z,55.23
2019-02-11T04:37:24.178Z,49.63
2019-02-11T04:42:29.206Z,27.60
2019-02-11T04:47:34.295Z,25.53
2019-02-11T04:52:39.315Z,53.40
2019-02-11T04:57:44.357Z,26.87
2019-02-11T05:02:49.491Z,24.50
2019-02-11T05:07:54.534Z,29.23
2019-02-11T05:13:01.365Z,22.73
2019-02-11T05:18:06.397Z,37.63
2019-02-11T05:23:11.536Z,59.37
2019-02-11T05:28:16.553Z,50.70
2019-02-11T05:33:21.695Z,69.87
2019-02-11T05:38:26.725Z,83.77
2019-02-11T05:43:31.865Z,77.17
2019-02-11T05:48:36.892Z,80.87
2019-02-11T05:53:41.928Z,71.97
2019-02-11T05:58:47.010Z,59.90
2019-02-11T06:03:52.045Z,43.47
2019-02-11T06:08:57.267Z,52.20
2019-02-11T06:14:02.327Z,37.73
2019-02-11T06:19:07.345Z,38.67
2019-02-11T06:24:12.380Z,30.20
2019-02-11T06:29:19.000Z,33.93
2019-02-11T06:34:24.226Z,29.97
2019-02-11T06:39:29.270Z,26.43
2019-02-11T06:44:34.298Z,37.87
2019-02-11T06:49:39.339Z,31.97
2019-02-11T06:54:44.364Z,37.73
2019-02-11T06:59:49.467Z,54.07
2019-02-11T07:04:54.506Z,69.73
2019-02-11T07:09:59.556Z,41.57
2019-02-11T07:15:04.918Z,42.20
2019-02-11T07:20:10.553Z,31.23
2019-02-11T07:25:16.695Z,38.93
2019-02-11T07:30:21.893Z,37.63
2019-02-11T07:35:26.903Z,31.87
2019-02-11T07:40:31.937Z,41.00
2019-02-11T07:45:43.112Z,34.07
2019-02-11T07:50:48.119Z,32.40
2019-02-11T07:55:53.122Z,27.67
2019-02-11T08:00:58.171Z,27.07
2019-02-11T08:06:03.187Z,26.30
2019-02-11T08:11:08.204Z,25.37
2019-02-11T08:16:13.235Z,25.47
2019-02-11T08:21:18.356Z,50.97
2019-02-11T08:26:23.329Z,51.10
2019-02-11T08:31:28.323Z,55.53
2019-02-11T08:36:33.370Z,64.57
2019-02-11T08:41:38.406Z,38.17
2019-02-11T08:46:43.427Z,48.97
2019-02-11T08:51:49.597Z,45.03
2019-02-11T08:56:54.624Z,58.80
2019-02-11T09:01:59.639Z,64.10
2019-02-11T09:07:05.113Z,81.50
2019-02-11T09:12:10.265Z,83.90
2019-02-11T09:17:15.272Z,129.97
2019-02-11T09:22:20.372Z,108.10
2019-02-11T09:27:25.395Z,112.70
2019-02-11T09:32:30.405Z,149.27
2019-02-11T09:37:36.716Z,110.07
2019-02-11T09:42:41.833Z,114.77
2019-02-11T09:47:46.894Z,111.37
2019-02-11T09:52:52.124Z,107.13
2019-02-11T09:57:57.208Z,125.30
2019-02-11T10:03:02.234Z,124.73
2019-02-11T10:08:07.249Z,140.93
2019-02-11T10:13:12.334Z,115.50
2019-02-11T10:18:17.343Z,114.70
2019-02-11T10:23:22.349Z,107.77
2019-02-11T10:28:27.348Z,184.87
2019-02-11T10:33:32.422Z,123.13
2019-02-11T10:38:37.419Z,110.47
2019-02-11T10:43:42.739Z,60.17
2019-02-11T10:48:47.737Z,78.10
2019-02-11T10:53:54.626Z,55.37
2019-02-11T10:58:59.662Z,64.43
2019-02-11T11:04:04.666Z,65.43
2019-02-11T11:09:14.462Z,85.77
2019-02-11T11:14:19.460Z,60.83
2019-02-11T11:19:24.435Z,42.63
2019-02-11T11:24:29.452Z,77.93
2019-02-11T11:29:34.452Z,73.23
2019-02-11T11:34:39.449Z,64.87
2019-02-11T11:39:44.465Z,59.17
2019-02-11T11:44:49.449Z,68.03
2019-02-11T11:49:54.456Z,73.43
2019-02-11T11:54:59.447Z,53.80
2019-02-11T12:00:07.899Z,68.23
2019-02-11T12:05:15.587Z,59.90
2019-02-11T12:10:19.976Z,45.60
2019-02-11T12:15:26.008Z,58.73
2019-02-11T12:20:33.390Z,84.90
2019-02-11T12:25:37.750Z,65.13
2019-02-11T12:30:43.038Z,106.77
2019-02-11T12:35:48.031Z,44.27
2019-02-11T12:40:53.326Z,57.37
2019-02-11T12:45:58.337Z,42.70
2019-02-11T12:51:03.351Z,40.60
2019-02-11T12:56:08.333Z,66.27
2019-02-11T13:01:13.360Z,22.47
2019-02-11T13:06:18.354Z,24.10
2019-02-11T13:11:23.626Z,30.90
2019-02-11T13:16:30.738Z,42.60
2019-02-11T13:21:35.728Z,15.83
2019-02-11T13:26:40.711Z,18.60
2019-02-11T13:31:47.163Z,38.83
2019-02-11T13:36:52.246Z,42.33
2019-02-11T13:41:57.241Z,32.07
2019-02-11T13:47:02.255Z,25.67
2019-02-11T13:52:07.244Z,46.10
2019-02-11T13:57:12.595Z,45.03
2019-02-11T14:02:17.852Z,23.53
2019-02-11T14:07:22.918Z,21.13
2019-02-11T14:12:28.278Z,28.23
2019-02-11T14:17:34.019Z,21.57
2019-02-11T14:22:39.109Z,21.03
2019-02-11T14:27:44.129Z,35.10
2019-02-11T14:32:49.560Z,35.37
2019-02-11T14:37:54.563Z,23.87
2019-02-11T14:42:59.587Z,26.43
2019-02-11T14:48:04.598Z,30.97
2019-02-11T14:53:09.564Z,23.47
2019-02-11T14:58:14.691Z,25.67
2019-02-11T15:03:19.688Z,20.00
2019-02-11T15:08:24.684Z,28.90
2019-02-11T15:13:34.311Z,32.10
2019-02-11T15:18:39.451Z,22.03
2019-02-11T15:23:44.902Z,25.37
2019-02-11T15:28:49.912Z,20.00
2019-02-11T15:33:54.928Z,16.20
2019-02-11T15:38:59.910Z,19.10
2019-02-11T15:44:04.915Z,26.70
2019-02-11T15:49:09.927Z,24.43
2019-02-11T15:54:14.975Z,20.43
2019-02-11T15:59:20.033Z,21.73
2019-02-11T16:04:25.065Z,21.70
2019-02-11T16:09:30.061Z,30.47
2019-02-11T16:14:35.089Z,28.97
2019-02-11T16:19:40.101Z,22.30
2019-02-11T16:24:45.108Z,104.07
2019-02-11T16:29:50.117Z,33.80
2019-02-11T16:34:55.094Z,51.10
2019-02-11T16:40:00.306Z,34.33
2019-02-11T16:45:06.144Z,18.10
2019-02-11T16:50:11.740Z,18.70
2019-02-11T16:55:16.761Z,14.60
2019-02-11T17:00:21.816Z,46.97
2019-02-11T17:05:26.815Z,20.40
2019-02-11T17:10:31.810Z,17.43
2019-02-11T17:15:38.699Z,22.57
2019-02-11T17:20:43.650Z,19.17
2019-02-11T17:25:48.941Z,20.90
2019-02-11T17:30:53.987Z,26.43
2019-02-11T17:35:58.980Z,28.13
2019-02-11T17:41:04.084Z,26.10
2019-02-11T17:46:09.058Z,28.13
2019-02-11T17:51:14.254Z,29.40
2019-02-11T17:56:19.249Z,28.83
2019-02-11T18:01:24.400Z,29.70
2019-02-11T18:06:29.389Z,29.63
2019-02-11T18:11:34.403Z,29.03
2019-02-11T18:16:39.439Z,35.67
2019-02-11T18:21:44.465Z,33.50
2019-02-11T18:26:49.456Z,25.57
2019-02-11T18:31:54.459Z,22.10
2019-02-11T18:36:59.743Z,29.00
2019-02-11T18:42:04.754Z,20.03
2019-02-11T18:47:09.745Z,20.40
2019-02-11T18:52:14.823Z,16.87
2019-02-11T18:57:19.812Z,19.87
2019-02-11T19:02:24.968Z,14.17
2019-02-11T19:07:29.971Z,15.33
2019-02-11T19:12:34.955Z,22.83
2019-02-11T19:17:41.052Z,14.07
2019-02-11T19:22:46.204Z,14.83
2019-02-11T19:27:51.181Z,7.53
2019-02-11T19:32:56.459Z,8.83
2019-02-11T19:38:01.441Z,7.73
2019-02-11T19:43:06.582Z,8.37
2019-02-11T19:48:11.571Z,9.50
2019-02-11T19:53:16.669Z,8.93
2019-02-11T19:58:21.649Z,9.00
2019-02-11T20:03:26.729Z,8.43
2019-02-11T20:08:31.723Z,12.30
2019-02-11T20:13:36.732Z,11.17
2019-02-11T20:18:41.751Z,12.10
2019-02-11T20:23:46.993Z,12.73
2019-02-11T20:28:52.176Z,13.23
2019-02-11T20:33:57.154Z,13.77
2019-02-11T20:39:02.160Z,14.40
2019-02-11T20:44:07.747Z,16.97
2019-02-11T20:49:12.766Z,20.00
2019-02-11T20:54:17.768Z,20.77
2019-02-11T20:59:22.763Z,15.90
2019-02-11T21:04:27.792Z,17.83
2019-02-11T21:09:32.795Z,47.53
2019-02-11T21:14:37.793Z,14.43
2019-02-11T21:19:42.800Z,10.60
2019-02-11T21:24:47.784Z,11.33
2019-02-11T21:29:52.784Z,9.53
2019-02-11T21:34:57.757Z,15.53
2019-02-11T21:40:02.738Z,14.97
2019-02-11T21:45:08.842Z,14.80
2019-02-11T21:50:14.945Z,16.43
2019-02-11T21:55:20.036Z,20.20
2019-02-11T22:00:25.018Z,16.47
2019-02-11T22:05:30.055Z,19.17
2019-02-11T22:10:35.043Z,18.77
2019-02-11T22:15:40.025Z,17.87
2019-02-11T22:20:45.019Z,20.50
2019-02-11T22:25:50.010Z,26.27
2019-02-11T22:30:55.025Z,37.40
2019-02-11T22:36:00.024Z,42.37
2019-02-11T22:41:05.017Z,49.73
2019-02-11T22:46:10.021Z,43.43
2019-02-11T22:51:15.072Z,40.13
2019-02-11T22:56:21.639Z,39.33
2019-02-11T23:01:28.254Z,43.73
2019-02-11T23:06:34.460Z,36.10
2019-02-11T23:11:40.991Z,21.70
2019-02-11T23:16:46.035Z,10.40
2019-02-11T23:21:51.864Z,11.77
2019-02-11T23:26:56.871Z,10.23
2019-02-11T23:32:01.864Z,16.10
2019-02-11T23:37:06.882Z,10.80
2019-02-11T23:42:11.874Z,13.97
2019-02-11T23:47:16.861Z,12.13
2019-02-11T23:52:21.856Z,13.20
2019-02-11T23:57:28.074Z,14.93
